PORT of CHALKI

Država: Greece Država: Greece [GR]
Širina / Dužina: 36.221375° / 27.615645° Prikaži na mapi
Lokalno vreme:  [UTC +3]
UN/LOCODE: GRHAL

Skorašnji dolasci i odlasci


Ime plovila
Dolazak (UTC)
Dolazak (LT)
Odlazak (UTC)
Odlazak (LT)
Vessel Type: Jahte i drugi  LUDYNOSA.G 2014-08-29 14:03:00 2014-08-29 17:03:00 2014-08-30 09:54:00 2014-08-30 12:54:00
Vessel Type: Putnički brodovi  FEDON 2014-08-30 07:10:00 2014-08-30 10:10:00
Vessel Type: Putnički brodovi  FEDON 2014-08-29 15:05:00 2014-08-29 18:05:00 2014-08-30 03:36:00 2014-08-30 06:36:00
Vessel Type: Putnički brodovi  FEDON 2014-08-29 07:04:00 2014-08-29 10:04:00 2014-08-29 13:13:00 2014-08-29 16:13:00
Vessel Type: Brod velike brzine  DODEKANISOS EXPRESS 2014-08-28 13:25:00 2014-08-28 16:25:00 2014-08-28 13:39:00 2014-08-28 16:39:00
Vessel Type: Putnički brodovi  FEDON 2014-08-28 07:04:00 2014-08-28 10:04:00 2014-08-28 13:05:00 2014-08-28 16:05:00
Vessel Type: Putnički brodovi  PREVELIS 2014-08-28 08:09:00 2014-08-28 11:09:00 2014-08-28 08:25:00 2014-08-28 11:25:00
Vessel Type: Putnički brodovi  ULUCINAR 2014-08-27 16:00:00 2014-08-27 19:00:00 2014-08-28 07:43:00 2014-08-28 10:43:00
Vessel Type: Jahte i drugi  NECTON 2014-08-27 13:51:00 2014-08-27 16:51:00 2014-08-28 05:42:00 2014-08-28 08:42:00
Vessel Type: Putnički brodovi  FEDON 2014-08-27 16:44:00 2014-08-27 19:44:00 2014-08-28 03:34:00 2014-08-28 06:34:00

Očekivani dolasci


Ime plovila
Scheduled Arrival (UTC)
Planirani dolazak (lokalno vreme)
Procenjeno vreme dolaska (UTC)
Procenjeno vreme dolaska (lokalno)
Nema pronađenih zapisa

Wind Forecast


    
Vreme (UTC)
Brzina
Direction
Temperature
2014-08-30 12:00:00 14 knots 307° 26°C
2014-08-30 15:00:00 12 knots 305° 26°C
2014-08-30 18:00:00 11 knots 304° 26°C
2014-08-30 21:00:00 10 knots 290° 26°C
2014-08-31 00:00:00 10 knots 286° 26°C
2014-08-31 03:00:00 9 knots 294° 26°C
2014-08-31 06:00:00 12 knots 307° 26°C
2014-08-31 09:00:00 14 knots 301° 25°C
2014-08-31 12:00:00 14 knots 297° 25°C
2014-08-31 15:00:00 14 knots 298° 25°C
2014-08-31 18:00:00 13 knots 294° 25°C
2014-08-31 21:00:00 13 knots 287° 25°C
2014-09-01 00:00:00 13 knots 285° 25°C
2014-09-01 03:00:00 12 knots 284° 25°C
2014-09-01 06:00:00 11 knots 294° 25°C
2014-09-01 09:00:00 13 knots 293° 25°C
2014-09-01 12:00:00 14 knots 290° 25°C